createdAt,value
2018-08-19T00:01:00.802Z,74.00
2018-08-19T00:03:31.579Z,74.00
2018-08-19T00:06:02.307Z,74.40
2018-08-19T00:08:33.490Z,74.60
2018-08-19T00:11:06.826Z,75.10
2018-08-19T00:13:38.236Z,75.30
2018-08-19T00:16:09.998Z,75.10
2018-08-19T00:18:40.710Z,75.20
2018-08-19T00:21:12.098Z,75.50
2018-08-19T00:23:48.810Z,75.50
2018-08-19T00:26:19.476Z,75.80
2018-08-19T00:28:50.154Z,75.80
2018-08-19T00:31:20.846Z,76.00
2018-08-19T00:33:51.526Z,76.10
2018-08-19T00:36:29.182Z,76.60
2018-08-19T00:38:59.872Z,76.60
2018-08-19T00:41:30.514Z,76.90
2018-08-19T00:44:01.243Z,77.10
2018-08-19T00:46:32.946Z,77.20
2018-08-19T00:49:03.652Z,77.40
2018-08-19T00:51:34.362Z,77.70
2018-08-19T00:54:05.106Z,77.70
2018-08-19T00:56:36.988Z,77.70
2018-08-19T00:59:10.106Z,77.70
2018-08-19T01:01:40.869Z,78.00
2018-08-19T01:04:11.795Z,78.20
2018-08-19T01:06:47.734Z,78.20
2018-08-19T01:09:18.726Z,77.80
2018-08-19T01:11:49.751Z,78.60
2018-08-19T01:14:20.440Z,78.60
2018-08-19T01:16:51.182Z,78.70
2018-08-19T01:19:21.863Z,78.80
2018-08-19T01:21:53.634Z,79.00
2018-08-19T01:24:24.666Z,79.30
2018-08-19T01:26:55.358Z,79.40
2018-08-19T01:29:36.882Z,79.40
2018-08-19T01:32:11.622Z,79.60
2018-08-19T01:34:45.646Z,79.70
2018-08-19T01:37:16.667Z,80.00
2018-08-19T01:39:47.687Z,80.00
2018-08-19T01:42:18.711Z,80.10
2018-08-19T01:44:49.398Z,80.20
2018-08-19T01:47:20.059Z,80.40
2018-08-19T01:49:50.707Z,80.30
2018-08-19T01:52:21.378Z,80.30
2018-08-19T01:54:52.042Z,80.60
2018-08-19T01:57:25.618Z,80.50
2018-08-19T01:59:56.351Z,80.40
2018-08-19T02:02:28.282Z,80.70
2018-08-19T02:04:59.329Z,80.80
2018-08-19T02:07:30.354Z,81.00
2018-08-19T02:10:02.778Z,81.10
2018-08-19T02:12:38.718Z,81.30
2018-08-19T02:15:10.307Z,81.30
2018-08-19T02:17:48.128Z,82.40
2018-08-19T02:20:18.882Z,81.80
2018-08-19T02:22:53.846Z,81.90
2018-08-19T02:25:24.541Z,82.10
2018-08-19T02:27:55.254Z,82.20
2018-08-19T02:30:25.926Z,82.20
2018-08-19T02:32:56.690Z,82.00
2018-08-19T02:35:27.419Z,81.90
2018-08-19T02:37:58.430Z,81.60
2018-08-19T02:40:30.670Z,82.10
2018-08-19T02:43:01.593Z,82.10
2018-08-19T02:45:38.774Z,82.20
2018-08-19T02:48:11.143Z,82.60
2018-08-19T02:50:41.836Z,82.50
2018-08-19T02:53:12.490Z,82.60
2018-08-19T02:55:43.153Z,82.50
2018-08-19T02:58:19.327Z,82.90
2018-08-19T03:00:52.055Z,83.10
2018-08-19T03:03:22.719Z,83.10
2018-08-19T03:05:56.603Z,83.10
2018-08-19T03:08:27.710Z,82.90
2018-08-19T03:10:58.417Z,83.30
2018-08-19T03:13:29.051Z,83.20
2018-08-19T03:15:59.722Z,83.30
2018-08-19T03:18:30.394Z,84.10
2018-08-19T03:21:01.086Z,83.20
2018-08-19T03:23:31.758Z,83.20
2018-08-19T03:26:02.422Z,83.60
2018-08-19T03:28:33.097Z,83.60
2018-08-19T03:31:04.098Z,83.60
2018-08-19T03:33:34.783Z,83.70
2018-08-19T03:36:05.446Z,84.10
2018-08-19T03:38:36.130Z,84.20
2018-08-19T03:41:06.975Z,84.30
2018-08-19T03:43:38.074Z,84.50
2018-08-19T03:46:14.184Z,84.50
2018-08-19T03:48:45.056Z,85.00
2018-08-19T03:51:15.690Z,85.00
2018-08-19T03:53:46.351Z,84.80
2018-08-19T03:56:22.531Z,85.20
2018-08-19T03:58:57.270Z,85.70
2018-08-19T04:01:37.395Z,85.60
2018-08-19T04:04:08.143Z,85.90
2018-08-19T04:06:39.830Z,86.80
2018-08-19T04:09:10.507Z,86.10
2018-08-19T04:11:41.198Z,86.20
2018-08-19T04:21:26.419Z,86.10
2018-08-19T04:23:57.066Z,86.40
2018-08-19T04:26:28.100Z,86.70
2018-08-19T04:28:58.778Z,86.70
2018-08-19T04:31:29.442Z,86.70
2018-08-19T04:34:00.110Z,86.50
2018-08-19T04:36:30.786Z,86.50
2018-08-19T04:39:01.445Z,86.50
2018-08-19T04:41:32.470Z,86.10
2018-08-19T04:44:03.245Z,86.50
2018-08-19T04:46:33.926Z,86.40
2018-08-19T04:49:04.645Z,85.90
2018-08-19T04:51:35.304Z,85.90
2018-08-19T04:54:06.527Z,85.80
2018-08-19T04:56:37.166Z,85.90
2018-08-19T04:59:08.459Z,85.60
2018-08-19T05:01:39.126Z,85.60
2018-08-19T05:04:10.154Z,85.60
2018-08-19T05:06:40.807Z,85.40
2018-08-19T05:09:11.474Z,85.10
2018-08-19T05:11:42.135Z,85.20
2018-08-19T05:14:12.826Z,85.30
2018-08-19T05:16:43.670Z,85.50
2018-08-19T05:19:14.570Z,85.60
2018-08-19T05:21:45.219Z,85.60
2018-08-19T05:24:15.884Z,85.50
2018-08-19T05:26:47.555Z,85.60
2018-08-19T05:29:18.186Z,85.30
2018-08-19T05:31:57.606Z,85.40
2018-08-19T05:34:33.627Z,85.30
2018-08-19T05:37:04.704Z,85.40
2018-08-19T05:39:35.423Z,86.40
2018-08-19T05:42:13.046Z,85.60
2018-08-19T05:44:44.179Z,85.70
2018-08-19T05:47:16.840Z,85.30
2018-08-19T05:49:48.422Z,85.30
2018-08-19T05:52:22.141Z,85.40
2018-08-19T05:54:57.754Z,85.40
2018-08-19T05:57:31.163Z,85.30
2018-08-19T06:00:07.200Z,85.30
2018-08-19T06:02:43.587Z,85.20
2018-08-19T06:05:14.622Z,85.20
2018-08-19T06:07:45.362Z,85.20
2018-08-19T06:10:16.026Z,85.00
2018-08-19T06:12:46.710Z,85.00
2018-08-19T06:15:17.368Z,84.70
2018-08-19T06:17:46.885Z,84.60
2018-08-19T06:20:17.565Z,84.30
2018-08-19T06:22:49.298Z,84.20
2018-08-19T06:25:19.995Z,83.70
2018-08-19T06:27:51.282Z,83.20
2018-08-19T06:30:21.982Z,83.00
2018-08-19T06:32:52.718Z,82.90
2018-08-19T06:35:23.495Z,82.60
2018-08-19T06:37:54.529Z,82.10
2018-08-19T06:40:25.195Z,81.90
2018-08-19T06:42:55.910Z,81.80
2018-08-19T06:45:26.978Z,81.60
2018-08-19T06:47:57.715Z,81.10
2018-08-19T06:50:32.283Z,80.90
2018-08-19T06:53:02.979Z,80.50
2018-08-19T06:55:33.679Z,80.10
2018-08-19T06:58:04.775Z,79.70
2018-08-19T07:00:35.686Z,79.90
2018-08-19T07:03:06.871Z,79.40
2018-08-19T07:05:37.731Z,78.70
2018-08-19T07:08:08.764Z,78.40
2018-08-19T07:10:41.693Z,78.30
2018-08-19T07:13:13.631Z,78.00
2018-08-19T07:15:44.895Z,77.60
2018-08-19T07:18:16.307Z,77.10
2018-08-19T07:20:46.974Z,76.80
2018-08-19T07:23:17.666Z,76.50
2018-08-19T07:25:48.683Z,76.20
2018-08-19T07:28:19.357Z,75.60
2018-08-19T07:30:50.046Z,75.20
2018-08-19T07:33:20.702Z,75.60
2018-08-19T07:35:51.378Z,74.80
2018-08-19T07:38:22.374Z,74.00
2018-08-19T07:40:53.130Z,73.60
2018-08-19T07:43:23.809Z,73.30
2018-08-19T07:45:54.522Z,73.10
2018-08-19T07:48:25.230Z,73.10
2018-08-19T07:50:55.886Z,72.50
2018-08-19T07:53:26.754Z,72.00
2018-08-19T07:55:57.403Z,71.40
2018-08-19T07:58:37.950Z,71.00
2018-08-19T08:01:08.958Z,70.90
2018-08-19T08:03:39.742Z,69.70
2018-08-19T08:06:10.395Z,69.90
2018-08-19T08:08:41.483Z,69.20
2018-08-19T08:11:12.503Z,69.30
2018-08-19T08:13:43.232Z,68.70
2018-08-19T08:16:14.035Z,68.60
2018-08-19T08:18:44.714Z,68.40
2018-08-19T08:21:15.427Z,68.80
2018-08-19T08:23:46.278Z,70.00
2018-08-19T08:26:16.950Z,69.20
2018-08-19T08:28:53.262Z,68.70
2018-08-19T08:31:23.942Z,67.40
2018-08-19T08:33:54.966Z,67.30
2018-08-19T08:36:26.330Z,66.90
2018-08-19T08:38:57.123Z,67.00
2018-08-19T08:41:27.814Z,66.70
2018-08-19T08:43:58.478Z,66.70
2018-08-19T08:46:29.134Z,66.60
2018-08-19T08:49:00.731Z,66.00
2018-08-19T08:51:31.374Z,65.60
2018-08-19T08:54:02.055Z,66.60
2018-08-19T08:56:32.785Z,65.20
2018-08-19T08:59:03.619Z,64.70
2018-08-19T09:01:34.299Z,65.00
2018-08-19T09:04:05.011Z,64.10
2018-08-19T09:06:35.663Z,64.60
2018-08-19T09:09:07.946Z,64.00
2018-08-19T09:11:39.186Z,61.80
2018-08-19T09:14:09.854Z,62.30
2018-08-19T09:16:40.263Z,62.00
2018-08-19T09:19:10.998Z,62.20
2018-08-19T09:21:41.889Z,61.60
2018-08-19T09:24:12.590Z,61.20
2018-08-19T09:26:42.989Z,60.50
2018-08-19T09:29:13.655Z,60.20
2018-08-19T09:31:44.354Z,59.80
2018-08-19T09:34:15.039Z,59.50
2018-08-19T09:36:45.426Z,59.10
2018-08-19T09:39:16.150Z,59.30
2018-08-19T09:41:46.542Z,59.60
2018-08-19T09:44:16.938Z,58.80
2018-08-19T09:46:47.338Z,58.20
2018-08-19T09:49:17.715Z,58.00
2018-08-19T09:51:48.123Z,58.40
2018-08-19T09:54:24.509Z,58.80
2018-08-19T09:56:54.891Z,58.00
2018-08-19T09:59:25.242Z,58.00
2018-08-19T10:01:55.654Z,57.00
2018-08-19T10:04:26.916Z,56.80
2018-08-19T10:07:28.638Z,56.40
2018-08-19T10:09:59.183Z,56.80
2018-08-19T10:12:29.578Z,56.50
2018-08-19T10:15:00.272Z,55.80
2018-08-19T10:17:31.005Z,56.30
2018-08-19T10:20:01.367Z,55.80
2018-08-19T10:22:37.127Z,55.70
2018-08-19T10:25:14.667Z,55.20
2018-08-19T10:27:47.990Z,55.00
2018-08-19T10:30:19.214Z,55.40
2018-08-19T10:33:23.862Z,55.90
2018-08-19T10:35:57.382Z,55.30
2018-08-19T10:38:27.767Z,54.00
2018-08-19T10:41:03.231Z,54.40
2018-08-19T10:43:33.599Z,53.90
2018-08-19T10:46:04.037Z,53.30
2018-08-19T10:48:34.574Z,53.20
2018-08-19T10:51:05.006Z,53.80
2018-08-19T10:53:35.378Z,52.60
2018-08-19T10:56:05.794Z,52.80
2018-08-19T10:58:36.674Z,52.20
2018-08-19T11:01:07.066Z,52.10
2018-08-19T11:03:37.461Z,51.80
2018-08-19T11:06:08.190Z,52.60
2018-08-19T11:08:42.807Z,51.80
2018-08-19T11:11:13.154Z,51.60
2018-08-19T11:13:43.541Z,51.20
2018-08-19T11:16:13.883Z,50.90
2018-08-19T11:18:46.519Z,51.30
2018-08-19T11:21:24.515Z,51.10
2018-08-19T11:23:55.439Z,50.00
2018-08-19T11:26:26.441Z,49.80
2018-08-19T11:29:00.114Z,50.20
2018-08-19T11:31:31.409Z,50.40
2018-08-19T11:34:04.437Z,49.40
2018-08-19T11:36:40.686Z,49.70
2018-08-19T11:39:14.209Z,49.70
2018-08-19T11:41:44.586Z,49.60
2018-08-19T11:44:16.502Z,49.10
2018-08-19T11:46:47.243Z,48.90
2018-08-19T11:49:18.998Z,49.70
2018-08-19T11:51:54.458Z,49.10
2018-08-19T11:54:25.498Z,48.90
2018-08-19T11:57:02.622Z,49.20
2018-08-19T11:59:36.071Z,48.30
2018-08-19T12:02:10.779Z,48.30
2018-08-19T12:04:41.701Z,48.50
2018-08-19T12:07:19.198Z,47.20
2018-08-19T12:10:00.963Z,47.80
2018-08-19T12:12:48.932Z,46.80
2018-08-19T12:15:19.310Z,46.40
2018-08-19T12:17:49.672Z,46.40
2018-08-19T12:20:28.274Z,46.70
2018-08-19T12:22:58.634Z,44.90
2018-08-19T12:25:29.295Z,44.60
2018-08-19T12:27:59.656Z,45.60
2018-08-19T12:30:31.938Z,46.00
2018-08-19T12:33:13.626Z,44.90
2018-08-19T12:35:43.990Z,44.50
2018-08-19T12:38:14.354Z,44.40
2018-08-19T12:40:47.562Z,43.80
2018-08-19T12:43:18.299Z,43.80
2018-08-19T12:45:48.734Z,42.20
2018-08-19T12:48:19.085Z,43.90
2018-08-19T12:50:54.023Z,43.00
2018-08-19T12:53:24.423Z,42.70
2018-08-19T12:55:54.831Z,42.50
2018-08-19T12:58:25.722Z,41.50
2018-08-19T13:00:56.126Z,41.00
2018-08-19T13:03:27.929Z,41.80
2018-08-19T13:06:02.446Z,40.80
2018-08-19T13:08:33.194Z,42.00
2018-08-19T13:11:05.319Z,41.10
2018-08-19T13:13:35.706Z,40.90
2018-08-19T13:16:06.414Z,40.50
2018-08-19T13:18:41.759Z,40.00
2018-08-19T13:21:17.738Z,40.70
2018-08-19T13:23:48.107Z,41.20
2018-08-19T13:26:18.458Z,40.40
2018-08-19T13:28:54.368Z,40.20
2018-08-19T13:31:30.314Z,40.00
2018-08-19T13:34:00.718Z,40.10
2018-08-19T13:36:31.319Z,40.10
2018-08-19T13:39:01.695Z,38.90
2018-08-19T13:41:32.046Z,39.20
2018-08-19T13:44:02.802Z,40.20
2018-08-19T13:46:33.551Z,40.20
2018-08-19T13:49:03.945Z,40.50
2018-08-19T13:51:34.687Z,40.20
2018-08-19T13:54:05.112Z,40.10
2018-08-19T13:56:35.700Z,39.50
2018-08-19T13:59:06.283Z,39.70
2018-08-19T14:01:36.679Z,40.00
2018-08-19T14:04:07.571Z,40.00
2018-08-19T14:06:38.365Z,39.30
2018-08-19T14:09:09.791Z,39.70
2018-08-19T14:11:40.730Z,39.80
2018-08-19T14:14:11.565Z,39.20
2018-08-19T14:16:41.950Z,39.90
2018-08-19T14:19:12.722Z,39.60
2018-08-19T14:21:43.082Z,39.70
2018-08-19T14:24:13.494Z,40.30
2018-08-19T14:26:43.902Z,39.80
2018-08-19T14:29:14.469Z,39.60
2018-08-19T14:31:44.820Z,40.40
2018-08-19T14:34:15.198Z,40.80
2018-08-19T14:36:45.567Z,40.00
2018-08-19T14:39:16.009Z,40.30
2018-08-19T14:41:46.373Z,39.50
2018-08-19T14:44:16.787Z,40.50
2018-08-19T14:46:48.163Z,41.40
2018-08-19T14:49:18.520Z,41.40
2018-08-19T14:51:56.542Z,40.10
2018-08-19T14:54:26.936Z,39.60
2018-08-19T14:56:57.687Z,39.50
2018-08-19T14:59:28.042Z,39.90
2018-08-19T15:01:58.479Z,40.00
2018-08-19T15:04:28.822Z,39.70
2018-08-19T15:06:59.217Z,40.10
2018-08-19T15:09:31.445Z,40.60
2018-08-19T15:12:13.074Z,40.30
2018-08-19T15:14:43.759Z,40.20
2018-08-19T15:17:14.128Z,40.50
2018-08-19T15:19:46.744Z,39.90
2018-08-19T15:22:17.386Z,40.80
2018-08-19T15:24:48.037Z,40.20
2018-08-19T15:27:18.958Z,40.90
2018-08-19T15:29:51.168Z,41.30
2018-08-19T15:32:22.948Z,40.80
2018-08-19T15:34:53.249Z,41.00
2018-08-19T15:37:23.636Z,41.70
2018-08-19T15:39:54.040Z,40.70
2018-08-19T15:42:24.420Z,40.70
2018-08-19T15:44:54.818Z,41.50
2018-08-19T15:47:25.189Z,41.60
2018-08-19T15:50:09.290Z,41.60
2018-08-19T15:52:39.642Z,41.60
2018-08-19T15:55:10.359Z,41.70
2018-08-19T15:57:40.734Z,41.90
2018-08-19T16:00:11.474Z,42.10
2018-08-19T16:02:41.874Z,41.90
2018-08-19T16:05:17.238Z,42.10
2018-08-19T16:07:47.810Z,41.90
2018-08-19T16:10:18.215Z,42.60
2018-08-19T16:12:49.714Z,42.20
2018-08-19T16:15:22.787Z,42.80
2018-08-19T16:17:54.559Z,41.20
2018-08-19T16:20:25.142Z,42.40
2018-08-19T16:22:55.502Z,42.00
2018-08-19T16:25:26.290Z,43.00
2018-08-19T16:27:57.002Z,42.60
2018-08-19T16:30:27.394Z,42.00
2018-08-19T16:32:58.486Z,42.20
2018-08-19T16:35:28.902Z,42.30
2018-08-19T16:37:59.279Z,42.50
2018-08-19T16:40:29.670Z,42.80
2018-08-19T16:43:00.444Z,43.10
2018-08-19T16:45:30.901Z,42.80
2018-08-19T16:48:01.314Z,43.30
2018-08-19T16:50:31.843Z,43.00
2018-08-19T16:53:02.281Z,43.40
2018-08-19T16:55:32.686Z,43.40
2018-08-19T16:58:03.046Z,43.80
2018-08-19T17:00:33.463Z,42.80
2018-08-19T17:03:18.299Z,43.10
2018-08-19T17:05:48.838Z,43.30
2018-08-19T17:08:19.538Z,43.00
2018-08-19T17:10:50.614Z,43.40
2018-08-19T17:13:21.340Z,43.20
2018-08-19T17:15:51.735Z,43.20
2018-08-19T17:18:22.282Z,43.00
2018-08-19T17:20:52.683Z,44.30
2018-08-19T17:23:24.175Z,43.90
2018-08-19T17:25:54.910Z,43.40
2018-08-19T17:28:26.152Z,44.10
2018-08-19T17:30:56.905Z,44.20
2018-08-19T17:33:29.474Z,44.30
2018-08-19T17:36:00.274Z,44.20
2018-08-19T17:38:32.892Z,44.70
2018-08-19T17:41:03.830Z,44.90
2018-08-19T17:43:39.464Z,45.50
2018-08-19T17:46:11.940Z,46.20
2018-08-19T17:48:43.279Z,46.20
2018-08-19T17:51:26.114Z,46.00
2018-08-19T17:53:56.499Z,46.30
2018-08-19T17:56:26.882Z,46.90
2018-08-19T17:58:57.293Z,47.40
2018-08-19T18:01:27.899Z,46.60
2018-08-19T18:03:58.350Z,47.30
2018-08-19T18:06:28.702Z,47.30
2018-08-19T18:08:59.135Z,47.50
2018-08-19T18:11:29.486Z,47.60
2018-08-19T18:13:59.966Z,48.00
2018-08-19T18:16:30.662Z,48.50
2018-08-19T18:19:01.084Z,48.50
2018-08-19T18:21:36.631Z,49.10
2018-08-19T18:24:07.542Z,48.90
2018-08-19T18:26:37.930Z,49.10
2018-08-19T18:29:08.310Z,49.70
2018-08-19T18:31:38.716Z,50.00
2018-08-19T18:34:09.351Z,50.30
2018-08-19T18:36:39.890Z,50.20
2018-08-19T18:39:11.382Z,50.80
2018-08-19T18:41:44.663Z,51.00
2018-08-19T18:44:15.030Z,51.30
2018-08-19T18:46:45.566Z,51.30
2018-08-19T18:49:15.927Z,51.90
2018-08-19T18:51:48.688Z,51.90
2018-08-19T18:54:30.063Z,52.10
2018-08-19T18:57:05.505Z,52.60
2018-08-19T18:59:41.285Z,53.10
2018-08-19T19:02:12.540Z,53.20
2018-08-19T19:04:44.192Z,53.30
2018-08-19T19:07:15.610Z,54.00
2018-08-19T19:09:50.365Z,54.10
2018-08-19T19:12:21.979Z,54.40
2018-08-19T19:14:52.715Z,54.30
2018-08-19T19:17:23.082Z,54.70
2018-08-19T19:19:53.497Z,55.00
2018-08-19T19:22:23.880Z,54.90
2018-08-19T19:24:54.250Z,55.10
2018-08-19T19:27:24.679Z,56.00
2018-08-19T19:30:06.467Z,55.60
2018-08-19T19:32:36.813Z,55.70
2018-08-19T19:35:12.558Z,56.10
2018-08-19T19:37:43.178Z,56.00
2018-08-19T19:40:13.563Z,56.40
2018-08-19T19:42:43.984Z,56.90
2018-08-19T19:45:14.519Z,56.90
2018-08-19T19:47:44.902Z,56.90
2018-08-19T19:50:15.290Z,57.20
2018-08-19T19:52:51.422Z,57.30
2018-08-19T19:55:21.954Z,58.00
2018-08-19T19:57:52.306Z,57.30
2018-08-19T20:00:23.050Z,57.80
2018-08-19T20:02:55.061Z,57.70
2018-08-19T20:05:26.111Z,57.80
2018-08-19T20:07:56.495Z,58.20
2018-08-19T20:10:27.858Z,58.20
2018-08-19T20:12:58.296Z,58.20
2018-08-19T20:15:28.702Z,58.30
2018-08-19T20:17:59.235Z,58.50
2018-08-19T20:20:29.968Z,58.50
2018-08-19T20:23:01.534Z,58.90
2018-08-19T20:25:31.899Z,58.90
2018-08-19T20:28:07.726Z,58.90
2018-08-19T20:30:39.058Z,59.00
2018-08-19T20:33:19.471Z,59.00
2018-08-19T20:35:49.938Z,59.20
2018-08-19T20:38:20.332Z,59.30
2018-08-19T20:40:50.699Z,59.20
2018-08-19T20:43:22.406Z,59.40
2018-08-19T20:45:53.155Z,59.60
2018-08-19T20:48:23.774Z,59.70
2018-08-19T20:50:54.175Z,59.70
2018-08-19T20:53:24.534Z,60.00
2018-08-19T20:55:54.899Z,60.00
2018-08-19T20:58:25.715Z,60.00
2018-08-19T21:00:56.148Z,59.90
2018-08-19T21:03:26.547Z,60.10
2018-08-19T21:05:56.962Z,60.20
2018-08-19T21:08:27.339Z,60.80
2018-08-19T21:10:57.698Z,60.90
2018-08-19T21:13:28.082Z,61.30
2018-08-19T21:15:58.468Z,61.60
2018-08-19T21:18:29.466Z,62.10
2018-08-19T21:21:00.283Z,62.40
2018-08-19T21:23:30.634Z,62.50
2018-08-19T21:26:01.965Z,62.80
2018-08-19T21:28:32.514Z,63.00
2018-08-19T21:31:02.894Z,63.40
2018-08-19T21:33:33.258Z,63.60
2018-08-19T21:36:03.650Z,63.70
2018-08-19T21:38:34.006Z,63.90
2018-08-19T21:41:04.378Z,64.40
2018-08-19T21:43:34.835Z,64.30
2018-08-19T21:46:05.198Z,64.60
2018-08-19T21:48:35.682Z,64.80
2018-08-19T21:51:06.062Z,65.10
2018-08-19T21:53:37.854Z,65.30
2018-08-19T21:56:08.210Z,65.50
2018-08-19T21:58:38.629Z,65.40
2018-08-19T22:01:14.405Z,65.80
2018-08-19T22:03:49.338Z,66.10
2018-08-19T22:06:19.689Z,66.20
2018-08-19T22:08:50.859Z,66.60
2018-08-19T22:11:21.214Z,66.90
2018-08-19T22:13:51.946Z,67.30
2018-08-19T22:16:22.320Z,67.60
2018-08-19T22:18:52.727Z,68.10
2018-08-19T22:21:24.183Z,68.10
2018-08-19T22:23:56.046Z,68.00
2018-08-19T22:26:26.754Z,68.20
2018-08-19T22:29:09.202Z,68.20
2018-08-19T22:31:39.561Z,68.40
2018-08-19T22:34:10.037Z,68.70
2018-08-19T22:36:40.414Z,68.80
2018-08-19T22:39:10.863Z,68.60
2018-08-19T22:41:41.215Z,68.70
2018-08-19T22:44:11.609Z,68.80
2018-08-19T22:46:42.016Z,68.90
2018-08-19T22:49:12.386Z,69.10
2018-08-19T22:51:42.772Z,69.40
2018-08-19T22:54:13.122Z,69.40
2018-08-19T22:56:43.503Z,69.70
2018-08-19T22:59:13.869Z,69.80
2018-08-19T23:01:47.335Z,70.10
2018-08-19T23:04:17.733Z,70.30
2018-08-19T23:06:48.100Z,70.60
2018-08-19T23:09:25.078Z,70.90
2018-08-19T23:11:55.484Z,70.90
2018-08-19T23:14:37.242Z,71.10
2018-08-19T23:17:08.128Z,71.40
2018-08-19T23:19:38.482Z,71.70
2018-08-19T23:22:08.866Z,71.90
2018-08-19T23:24:39.214Z,71.90
2018-08-19T23:27:09.614Z,72.20
2018-08-19T23:29:40.018Z,72.20
2018-08-19T23:32:10.388Z,72.30
2018-08-19T23:34:40.972Z,72.40
2018-08-19T23:37:11.617Z,72.50
2018-08-19T23:39:42.274Z,72.60
2018-08-19T23:42:12.938Z,73.00
2018-08-19T23:44:43.314Z,73.20
2018-08-19T23:47:14.000Z,73.40
2018-08-19T23:49:44.670Z,73.40
2018-08-19T23:52:15.063Z,73.40
2018-08-19T23:54:45.479Z,73.50
2018-08-19T23:57:16.119Z,73.70
2018-08-19T23:59:46.817Z,73.60
